Time;durP1;ratioP1;P1;durP2;ratioP2;P2;SDS_P1;SDS_P2;PMS_P1;PMS_P2;Temp;Humidity;BMP_temperature;BMP_pressure;BME280_temperature;BME280_humidity;BME280_pressure;Samples;Min_cycle;Max_cycle;Signal;HPM_P1;HPM_P2
2021/08/11 00:02:11;;;;;;;3.77;2.90;;;;;;;26.48;60.76;98258.59;5019939;28;20710;-67
2021/08/11 00:04:39;;;;;;;4.30;2.80;;;;;;;26.23;62.07;98256.22;5025539;28;20701;-67
2021/08/11 00:07:06;;;;;;;3.73;2.90;;;;;;;26.38;61.08;98260.63;5027824;28;20213;-68
2021/08/11 00:09:34;;;;;;;5.80;2.90;;;;;;;25.75;63.93;98246.41;5024266;28;20202;-66
2021/08/11 00:12:01;;;;;;;7.57;3.07;;;;;;;25.91;63.59;98255.25;5022606;28;20235;-67
2021/08/11 00:14:28;;;;;;;5.90;3.17;;;;;;;26.20;62.61;98254.06;5045021;28;20197;-66
2021/08/11 00:16:56;;;;;;;6.93;3.10;;;;;;;26.26;61.89;98255.63;5029615;28;20216;-66
2021/08/11 00:19:23;;;;;;;4.77;2.90;;;;;;;26.22;61.73;98262.81;5028127;28;20214;-68
2021/08/11 00:21:52;;;;;;;5.23;2.60;;;;;;;26.21;62.03;98263.91;5023198;28;20230;-66
2021/08/11 00:24:19;;;;;;;5.73;3.20;;;;;;;25.75;63.96;98265.56;5023987;28;20208;-66
2021/08/11 00:26:46;;;;;;;6.00;3.03;;;;;;;26.12;62.96;98256.63;5027396;28;20218;-66
2021/08/11 00:29:13;;;;;;;5.73;2.77;;;;;;;26.07;62.76;98259.44;5025011;28;20224;-67
2021/08/11 00:31:41;;;;;;;4.53;2.77;;;;;;;25.63;64.14;98248.75;5025841;28;20241;-67
2021/08/11 00:34:08;;;;;;;9.53;2.70;;;;;;;25.98;63.28;98250.25;5021059;28;20219;-66
2021/08/11 00:36:35;;;;;;;5.47;2.93;;;;;;;26.15;62.09;98253.31;5023191;28;20676;-66
2021/08/11 00:39:04;;;;;;;5.80;3.17;;;;;;;26.12;62.02;98249.25;5025672;28;20210;-66
2021/08/11 00:41:31;;;;;;;5.97;3.03;;;;;;;26.22;61.77;98249.13;5022403;28;20220;-66
2021/08/11 00:43:58;;;;;;;4.50;2.60;;;;;;;26.42;60.58;98253.47;5019740;28;20289;-66
2021/08/11 00:46:26;;;;;;;4.93;2.83;;;;;;;26.22;61.13;98256.50;5023715;28;20207;-67
2021/08/11 00:48:53;;;;;;;6.03;2.67;;;;;;;26.36;61.14;98254.66;5026291;28;20240;-66
2021/08/11 00:51:21;;;;;;;4.63;2.87;;;;;;;26.40;60.58;98256.50;5024348;28;20224;-66
2021/08/11 00:53:49;;;;;;;4.87;3.10;;;;;;;26.39;60.48;98259.53;5028187;28;20209;-67
2021/08/11 00:56:20;;;;;;;6.20;2.90;;;;;;;26.22;60.56;98253.75;5023740;28;20206;-66
2021/08/11 00:58:47;;;;;;;4.40;2.70;;;;;;;26.26;60.59;98254.81;5024245;28;20293;-66
2021/08/11 01:01:14;;;;;;;4.50;3.00;;;;;;;26.47;59.79;98258.88;5018503;28;20233;-67
2021/08/11 01:03:42;;;;;;;5.50;2.83;;;;;;;26.51;59.44;98254.44;5029148;28;20212;-66
2021/08/11 01:06:10;;;;;;;4.33;2.80;;;;;;;26.35;60.58;98248.38;5024622;28;20222;-67
2021/08/11 01:08:38;;;;;;;4.73;3.00;;;;;;;26.43;60.22;98252.34;5018425;28;20601;-67
2021/08/11 01:11:06;;;;;;;7.30;3.27;;;;;;;26.38;60.65;98245.03;5016940;28;20223;-66
2021/08/11 01:13:35;;;;;;;5.50;2.80;;;;;;;26.25;61.64;98251.25;5023591;28;20671;-66
2021/08/11 01:16:02;;;;;;;4.53;3.10;;;;;;;26.21;62.24;98257.63;5022097;28;20211;-67
2021/08/11 01:18:29;;;;;;;4.37;2.90;;;;;;;26.40;61.14;98252.97;5030758;28;20216;-66
2021/08/11 01:21:01;;;;;;;6.13;3.03;;;;;;;26.14;63.05;98248.97;5024400;28;20243;-68
2021/08/11 01:23:33;;;;;;;5.93;3.10;;;;;;;26.52;60.68;98247.84;5027388;28;20259;-67
2021/08/11 01:26:05;;;;;;;5.03;2.87;;;;;;;26.42;61.22;98251.56;5030303;28;20623;-66
2021/08/11 01:28:52;;;;;;;6.63;3.07;;;;;;;26.15;62.53;98251.38;5025307;28;20225;-67
2021/08/11 01:31:21;;;;;;;6.27;2.83;;;;;;;26.44;61.63;98257.53;5028368;28;20238;-66
2021/08/11 01:33:56;;;;;;;6.07;2.97;;;;;;;26.57;60.76;98254.09;5025416;28;20217;-66
2021/08/11 01:36:34;;;;;;;5.17;2.83;;;;;;;26.51;60.14;98252.50;5025569;28;20216;-67
2021/08/11 01:39:04;;;;;;;8.53;3.07;;;;;;;26.49;61.50;98253.91;5029625;28;20208;-67
2021/08/11 01:41:38;;;;;;;6.67;2.90;;;;;;;26.56;60.53;98249.72;5026781;28;20232;-66
2021/08/11 01:44:07;;;;;;;6.83;3.23;;;;;;;26.26;62.89;98243.88;5029758;28;20202;-68
2021/08/11 01:46:38;;;;;;;4.77;2.80;;;;;;;26.22;62.82;98245.56;5027970;28;20205;-66
2021/08/11 01:49:08;;;;;;;5.73;2.83;;;;;;;26.08;63.27;98241.91;5026744;28;20234;-66
2021/08/11 01:51:38;;;;;;;6.60;3.60;;;;;;;25.91;64.73;98244.31;5029279;28;20222;-68
2021/08/11 01:54:07;;;;;;;6.07;3.43;;;;;;;25.88;65.34;98253.09;5032911;28;20231;-67
2021/08/11 01:56:38;;;;;;;5.33;2.73;;;;;;;25.91;64.88;98249.78;5016733;28;20212;-66
2021/08/11 01:59:06;;;;;;;6.80;2.90;;;;;;;25.90;65.64;98239.97;5021105;28;20198;-66
2021/08/11 02:01:34;;;;;;;5.20;2.97;;;;;;;25.81;65.56;98244.44;5026050;28;20232;-66
2021/08/11 02:04:01;;;;;;;6.73;3.33;;;;;;;25.86;65.10;98241.66;5026306;28;20208;-66
2021/08/11 02:06:30;;;;;;;5.63;3.20;;;;;;;25.80;65.14;98237.34;5024308;28;20213;-66
2021/08/11 02:08:58;;;;;;;5.60;3.17;;;;;;;26.20;63.07;98245.84;5023679;28;20229;-67
2021/08/11 02:11:26;;;;;;;5.00;3.10;;;;;;;25.53;66.38;98248.88;5028066;28;20287;-68
2021/08/11 02:13:53;;;;;;;7.30;3.30;;;;;;;25.32;67.45;98241.19;5028982;28;20208;-66
2021/08/11 02:16:20;;;;;;;5.90;3.47;;;;;;;25.55;66.74;98238.47;5030332;28;20224;-66
2021/08/11 02:18:48;;;;;;;4.47;2.80;;;;;;;25.12;69.84;98239.44;5018554;28;20212;-66
2021/08/11 02:21:15;;;;;;;5.13;3.10;;;;;;;25.44;67.44;98244.34;5020342;28;20712;-66
2021/08/11 02:23:44;;;;;;;4.67;3.10;;;;;;;25.11;69.41;98239.72;5029061;28;20686;-67
2021/08/11 02:26:17;;;;;;;4.10;3.30;;;;;;;25.31;67.95;98239.56;5028905;28;20208;-66
2021/08/11 02:28:51;;;;;;;7.13;3.90;;;;;;;25.03;68.87;98240.38;5028534;28;20231;-67
2021/08/11 02:31:24;;;;;;;5.80;3.10;;;;;;;25.36;67.00;98248.53;5024770;28;20242;-67
2021/08/11 02:33:57;;;;;;;5.97;3.37;;;;;;;25.30;67.10;98252.44;5027013;28;20212;-66
2021/08/11 02:36:28;;;;;;;5.70;3.57;;;;;;;25.18;67.74;98251.94;5041868;28;20202;-66
2021/08/11 02:39:02;;;;;;;4.87;3.33;;;;;;;25.24;67.02;98253.53;5028880;28;20250;-66
2021/08/11 02:41:35;;;;;;;5.47;3.30;;;;;;;24.85;69.15;98254.72;5039871;28;20652;-66
2021/08/11 02:44:08;;;;;;;6.57;3.47;;;;;;;24.97;68.49;98246.97;5040744;28;20210;-68
2021/08/11 02:46:39;;;;;;;5.73;2.80;;;;;;;25.01;69.30;98254.31;5029330;28;20262;-66
2021/08/11 02:49:09;;;;;;;4.40;3.07;;;;;;;24.81;70.08;98243.56;5013270;28;20228;-66
2021/08/11 02:51:37;;;;;;;5.30;2.97;;;;;;;24.90;69.49;98246.50;5023235;28;20607;-66
2021/08/11 02:54:08;;;;;;;5.13;3.43;;;;;;;24.65;71.07;98246.69;5027521;28;20214;-66
2021/08/11 02:56:35;;;;;;;5.17;3.10;;;;;;;24.50;72.78;98244.88;5021062;28;20662;-66
2021/08/11 02:59:03;;;;;;;7.00;3.43;;;;;;;24.90;69.76;98241.03;5025308;28;20205;-66
2021/08/11 03:01:31;;;;;;;6.93;3.03;;;;;;;25.05;68.71;98238.16;5024683;28;20263;-66
2021/08/11 03:03:58;;;;;;;7.17;2.90;;;;;;;24.99;68.68;98240.13;5029262;28;20214;-66
2021/08/11 03:06:26;;;;;;;5.47;3.27;;;;;;;25.01;68.48;98248.84;5030656;28;20203;-66
2021/08/11 03:08:53;;;;;;;7.27;3.50;;;;;;;25.02;68.36;98246.91;5026037;28;20243;-66
2021/08/11 03:11:22;;;;;;;5.27;3.60;;;;;;;25.02;68.30;98250.47;5020798;28;20227;-67
2021/08/11 03:13:49;;;;;;;4.70;3.20;;;;;;;25.01;68.13;98248.03;5028815;28;20211;-67
2021/08/11 03:16:16;;;;;;;9.47;3.43;;;;;;;24.96;68.64;98246.16;5020001;28;20231;-66
2021/08/11 03:18:44;;;;;;;5.50;3.40;;;;;;;24.90;68.67;98246.50;5027305;28;20298;-66
2021/08/11 03:21:11;;;;;;;9.07;3.33;;;;;;;24.99;67.79;98244.78;5021715;28;20222;-66
2021/08/11 03:23:38;;;;;;;9.87;3.93;;;;;;;24.94;68.46;98248.34;5025160;28;20213;-66
2021/08/11 03:26:05;;;;;;;6.23;3.57;;;;;;;24.88;68.85;98246.78;5026916;28;20214;-66
2021/08/11 03:28:34;;;;;;;9.00;4.07;;;;;;;24.58;70.37;98244.28;5025380;28;20222;-69
2021/08/11 03:31:02;;;;;;;6.27;3.60;;;;;;;24.54;70.76;98243.22;5048366;22;20232;-76
2021/08/11 03:33:29;;;;;;;6.27;3.53;;;;;;;24.72;69.69;98247.22;5017126;28;20225;-76
2021/08/11 03:35:56;;;;;;;7.87;4.30;;;;;;;24.92;68.13;98253.28;5014733;28;20215;-75
2021/08/11 03:38:23;;;;;;;8.90;3.53;;;;;;;25.05;67.11;98249.09;5018033;28;20211;-76
2021/08/11 03:40:51;;;;;;;8.20;3.63;;;;;;;24.82;68.35;98247.13;5029121;28;20232;-76
2021/08/11 03:43:18;;;;;;;7.63;3.87;;;;;;;25.00;67.54;98257.31;5005083;28;20215;-76
2021/08/11 03:45:47;;;;;;;7.33;3.70;;;;;;;25.07;66.74;98261.34;5008160;28;20207;-76
2021/08/11 03:48:14;;;;;;;6.47;4.00;;;;;;;24.63;69.84;98255.16;4999628;28;20210;-76
2021/08/11 03:50:42;;;;;;;7.37;3.97;;;;;;;24.45;70.64;98250.38;4994980;28;20210;-76
2021/08/11 03:53:10;;;;;;;10.13;5.20;;;;;;;24.12;73.30;98253.06;5003401;28;20740;-76
2021/08/11 03:55:37;;;;;;;7.07;4.37;;;;;;;24.31;72.56;98248.53;5004202;28;20655;-75
2021/08/11 03:58:05;;;;;;;7.03;4.27;;;;;;;24.79;70.31;98250.41;5005359;28;20211;-75
2021/08/11 04:00:33;;;;;;;7.17;4.10;;;;;;;24.77;69.67;98247.97;4999273;28;20209;-76
2021/08/11 04:03:02;;;;;;;6.60;3.53;;;;;;;25.03;68.45;98254.81;4992385;28;20567;-77
2021/08/11 04:05:29;;;;;;;5.43;3.47;;;;;;;25.07;68.12;98260.53;4997533;28;20593;-76
2021/08/11 04:07:56;;;;;;;7.30;3.20;;;;;;;25.04;67.68;98252.94;5008602;28;20223;-77
2021/08/11 04:10:24;;;;;;;8.50;3.90;;;;;;;25.35;66.39;98260.56;5008724;28;20231;-76
2021/08/11 04:12:51;;;;;;;6.20;3.73;;;;;;;25.39;65.63;98255.34;5004732;28;20233;-77
2021/08/11 04:15:18;;;;;;;7.10;3.47;;;;;;;25.30;65.86;98246.13;4995575;28;20661;-77
2021/08/11 04:17:46;;;;;;;8.83;3.73;;;;;;;25.10;67.71;98255.31;4997345;28;20215;-76
2021/08/11 04:20:15;;;;;;;7.73;3.67;;;;;;;24.95;68.01;98257.38;5009167;28;20210;-76
2021/08/11 04:22:43;;;;;;;4.97;3.40;;;;;;;24.91;68.98;98253.56;5005779;28;20708;-77
2021/08/11 04:25:10;;;;;;;5.87;3.50;;;;;;;25.02;68.24;98255.09;5008395;28;20215;-76
2021/08/11 04:27:38;;;;;;;8.03;3.63;;;;;;;24.77;68.83;98252.63;4998784;28;20206;-76
2021/08/11 04:30:06;;;;;;;7.40;3.60;;;;;;;25.02;67.94;98264.13;4991893;28;20234;-76
2021/08/11 04:32:35;;;;;;;4.80;3.53;;;;;;;25.01;68.15;98264.41;4994351;28;20240;-76
2021/08/11 04:35:04;;;;;;;7.97;3.63;;;;;;;24.91;68.42;98259.03;5004307;28;20273;-76
2021/08/11 04:37:33;;;;;;;7.23;3.53;;;;;;;25.06;68.07;98261.63;5003591;28;20217;-77
2021/08/11 04:40:00;;;;;;;4.30;3.30;;;;;;;24.94;68.91;98267.47;5004335;28;20224;-77
2021/08/11 04:42:27;;;;;;;8.33;3.20;;;;;;;24.24;72.88;98270.72;4999903;28;20223;-76
2021/08/11 04:44:55;;;;;;;12.50;3.80;;;;;;;24.43;73.47;98262.66;4993178;28;20216;-76
2021/08/11 04:47:22;;;;;;;5.87;3.53;;;;;;;24.46;72.66;98270.28;4991955;28;20204;-76
2021/08/11 04:49:49;;;;;;;5.63;3.33;;;;;;;24.25;75.03;98272.34;5004490;28;20227;-76
2021/08/11 04:52:16;;;;;;;7.07;3.13;;;;;;;24.54;73.53;98264.22;5009151;28;20234;-77
2021/08/11 04:54:45;;;;;;;5.80;3.90;;;;;;;24.68;72.27;98266.03;5008061;28;20208;-76
2021/08/11 04:57:12;;;;;;;8.00;3.80;;;;;;;24.89;71.01;98270.25;4995547;28;20700;-77
2021/08/11 04:59:40;;;;;;;6.00;4.13;;;;;;;25.27;69.30;98271.28;5008827;28;20201;-77
2021/08/11 05:02:07;;;;;;;4.83;3.60;;;;;;;25.54;67.64;98271.56;5006632;28;20230;-79
2021/08/11 05:04:34;;;;;;;6.00;3.90;;;;;;;25.61;67.03;98269.28;5009015;28;20204;-78
2021/08/11 05:07:03;;;;;;;5.40;3.60;;;;;;;25.71;66.64;98272.75;5006471;28;20208;-77
2021/08/11 05:09:32;;;;;;;7.00;4.20;;;;;;;25.75;66.52;98273.75;5003239;28;20226;-79
2021/08/11 05:12:01;;;;;;;6.07;3.33;;;;;;;25.99;65.41;98285.53;4999400;28;20296;-78
2021/08/11 05:14:28;;;;;;;4.70;3.40;;;;;;;25.73;66.01;98281.44;5030021;28;20206;-78
2021/08/11 05:16:55;;;;;;;6.83;3.93;;;;;;;25.61;66.16;98277.50;5005345;28;20293;-76
2021/08/11 05:19:22;;;;;;;7.10;4.30;;;;;;;25.26;67.74;98286.06;5011621;28;20209;-75
2021/08/11 05:21:51;;;;;;;6.97;4.00;;;;;;;25.79;65.61;98284.94;5005171;28;20227;-77
2021/08/11 05:24:18;;;;;;;6.83;4.27;;;;;;;26.19;63.15;98290.75;4999679;28;20211;-77
2021/08/11 05:26:46;;;;;;;11.47;4.07;;;;;;;25.43;67.24;98289.97;5010508;28;20217;-77
2021/08/11 05:29:15;;;;;;;8.13;4.10;;;;;;;24.97;71.44;98283.28;5023943;28;20239;-79
2021/08/11 05:31:42;;;;;;;10.27;4.00;;;;;;;25.94;66.34;98293.81;5008042;28;20316;-77
2021/08/11 05:34:10;;;;;;;8.63;4.57;;;;;;;26.28;64.46;98299.94;5011490;28;20214;-77
2021/08/11 05:36:37;;;;;;;5.73;3.60;;;;;;;26.52;60.61;98297.13;5007494;28;20639;-78
2021/08/11 05:39:04;;;;;;;4.23;3.27;;;;;;;26.43;61.11;98299.72;4995754;28;20218;-77
2021/08/11 05:41:32;;;;;;;11.83;3.67;;;;;;;27.38;57.13;98300.97;5007008;28;20701;-79
2021/08/11 05:43:59;;;;;;;5.80;3.73;;;;;;;26.65;59.13;98301.91;5010872;28;20225;-76
2021/08/11 05:46:28;;;;;;;5.93;3.87;;;;;;;27.80;55.05;98306.22;5011298;28;20310;-76
2021/08/11 05:48:56;;;;;;;6.37;3.53;;;;;;;27.79;54.09;98312.00;4998764;28;20313;-75
2021/08/11 05:51:23;;;;;;;8.73;4.10;;;;;;;28.35;52.42;98301.50;4998445;28;20263;-77
2021/08/11 05:53:51;;;;;;;6.73;4.23;;;;;;;28.30;53.52;98304.34;4995941;28;20200;-82
2021/08/11 05:56:18;;;;;;;5.53;3.50;;;;;;;28.31;52.56;98304.06;4997402;28;20201;-76
2021/08/11 05:58:45;;;;;;;7.10;3.10;;;;;;;28.52;51.23;98312.69;5007747;28;20207;-75
2021/08/11 06:01:12;;;;;;;5.80;2.90;;;;;;;28.69;50.64;98304.59;4997844;28;20302;-76
2021/08/11 06:03:41;;;;;;;8.97;3.50;;;;;;;29.21;48.68;98312.13;4999136;28;20275;-75
2021/08/11 06:06:09;;;;;;;7.63;3.65;;;;;;;29.14;49.15;98318.06;4988777;28;20452;-75
2021/08/11 06:08:36;;;;;;;7.90;3.10;;;;;;;29.72;47.20;98312.47;5002300;28;20217;-74
2021/08/11 06:11:04;;;;;;;7.10;3.80;;;;;;;28.74;49.99;98316.28;4993804;28;20238;-76
2021/08/11 06:13:31;;;;;;;5.80;3.30;;;;;;;28.73;50.39;98317.41;4998806;28;20204;-74
2021/08/11 06:15:58;;;;;;;5.77;3.60;;;;;;;28.78;49.84;98314.53;4994375;28;20204;-73
2021/08/11 06:18:26;;;;;;;4.80;3.27;;;;;;;29.85;46.31;98319.81;4997680;28;20200;-74
2021/08/11 06:20:55;;;;;;;9.87;3.57;;;;;;;30.55;44.35;98335.09;4997908;28;20205;-75
2021/08/11 06:23:22;;;;;;;8.47;3.30;;;;;;;29.42;47.57;98327.81;4995197;28;20201;-73
2021/08/11 06:25:49;;;;;;;6.57;3.60;;;;;;;28.59;51.39;98324.06;4999661;28;20209;-76
2021/08/11 06:28:17;;;;;;;7.43;3.43;;;;;;;28.99;50.30;98312.94;4991652;28;20274;-75
2021/08/11 06:30:44;;;;;;;10.13;4.10;;;;;;;27.61;54.45;98315.63;5000046;28;20233;-77
2021/08/11 06:33:12;;;;;;;20.93;5.30;;;;;;;28.35;52.41;98316.06;4999796;28;20237;-75
2021/08/11 06:35:39;;;;;;;37.37;5.67;;;;;;;28.71;52.14;98318.84;5002220;28;20224;-74
2021/08/11 06:38:08;;;;;;;6.40;3.60;;;;;;;29.25;49.49;98330.47;4994633;28;20210;-72
2021/08/11 06:40:37;;;;;;;7.23;3.63;;;;;;;29.14;50.84;98323.56;5001778;28;20291;-75
2021/08/11 06:43:04;;;;;;;5.33;3.43;;;;;;;28.73;50.32;98327.59;4995843;28;20360;-76
2021/08/11 06:45:32;;;;;;;13.50;3.97;;;;;;;29.29;48.61;98334.19;5007062;28;20222;-78
2021/08/11 06:47:59;;;;;;;8.33;3.57;;;;;;;28.59;51.28;98327.59;4999513;28;20202;-75
2021/08/11 06:50:26;;;;;;;235.93;15.00;;;;;;;29.50;48.21;98331.75;4996143;28;20258;-72
2021/08/11 06:52:54;;;;;;;12.93;3.77;;;;;;;28.91;51.37;98330.16;5004417;28;20271;-75
2021/08/11 06:55:22;;;;;;;11.40;3.10;;;;;;;29.07;50.24;98338.88;5000481;28;20245;-74
2021/08/11 06:57:50;;;;;;;8.20;3.60;;;;;;;29.84;46.77;98343.75;5002375;28;20235;-78
2021/08/11 07:00:19;;;;;;;10.57;3.30;;;;;;;29.63;46.52;98344.63;5005857;28;20292;-78
2021/08/11 07:02:46;;;;;;;8.73;3.53;;;20.50;1.00;;;29.93;46.08;98346.53;4994526;28;20243;-80
2021/08/11 07:05:14;;;;;;;9.03;3.57;;;20.60;1.00;;;30.05;46.10;98355.03;4993143;28;20218;-78
2021/08/11 07:07:41;;;;;;;8.83;3.53;;;20.70;1.00;;;30.45;44.42;98349.19;5000759;28;20206;-77
2021/08/11 07:10:10;;;;;;;6.90;3.23;;;20.80;1.00;;;30.35;44.73;98340.44;5002807;28;20316;-80
2021/08/11 07:12:39;;;;;;;6.30;3.93;;;20.90;1.00;;;30.49;43.67;98344.66;5007090;28;20236;-75
2021/08/11 07:15:08;;;;;;;5.23;3.40;;;21.10;1.00;;;30.69;43.89;98344.06;5001745;28;20210;-75
2021/08/11 07:17:35;;;;;;;7.00;3.77;;;21.20;1.00;;;30.75;43.04;98342.78;5010404;28;20220;-76
2021/08/11 07:20:07;;;;;;;6.77;3.63;;;21.20;1.00;;;30.14;44.04;98344.88;4999060;28;20203;-78
2021/08/11 07:22:34;;;;;;;9.37;3.60;;;21.40;1.00;;;30.21;44.76;98339.72;4983048;28;20309;-77
2021/08/11 07:25:01;;;;;;;4.40;3.00;;;21.40;1.00;;;29.83;46.26;98328.38;5008552;28;20646;-76
2021/08/11 07:27:28;;;;;;;6.20;3.17;;;21.40;1.00;;;30.01;45.20;98335.56;5013556;28;20214;-74
2021/08/11 07:29:57;;;;;;;7.13;3.77;;;21.50;1.00;;;30.53;44.27;98334.63;5003238;28;20235;-75
2021/08/11 07:32:24;;;;;;;15.20;4.17;;;21.50;1.00;;;30.50;45.19;98327.00;4992919;28;20250;-74
2021/08/11 07:34:51;;;;;;;8.70;3.47;;;21.60;1.00;;;29.59;47.18;98322.44;4992728;28;20677;-74
2021/08/11 07:37:18;;;;;;;5.97;4.00;;;21.60;1.00;;;28.51;52.83;98313.78;5002069;28;20210;-75
2021/08/11 07:39:45;;;;;;;6.33;3.90;;;21.20;1.00;;;30.67;44.71;98329.81;4995291;28;20219;-75
2021/08/11 07:42:12;;;;;;;8.43;3.60;;;21.40;1.00;;;29.66;47.33;98319.22;5006249;28;20313;-74
2021/08/11 07:44:39;;;;;;;5.20;3.43;;;21.50;1.00;;;29.39;48.63;98311.13;4997805;28;20674;-76
2021/08/11 07:47:08;;;;;;;7.63;3.53;;;21.50;1.00;;;29.22;49.21;98309.09;4993192;28;20214;-76
2021/08/11 07:49:34;;;;;;;5.73;3.10;;;21.60;1.00;;;30.09;46.48;98318.28;4990284;28;20238;-76
2021/08/11 07:52:01;;;;;;;5.63;3.10;;;21.70;1.00;;;30.62;44.32;98329.13;4989219;28;20234;-80
2021/08/11 07:54:28;;;;;;;6.30;2.80;;;22.00;1.00;;;31.30;41.98;98331.91;5007387;28;20337;-75
2021/08/11 07:56:55;;;;;;;3.40;2.53;;;22.20;1.00;;;31.65;39.60;98336.22;5006183;28;20210;-74
2021/08/11 07:59:22;;;;;;;5.97;2.88;;;22.50;1.00;;;31.85;39.29;98338.31;5011787;28;20210;-77
2021/08/11 08:01:49;;;;;;;5.22;3.00;;;22.70;99.90;;;31.97;38.52;98333.69;4998596;28;20224;-74
2021/08/11 08:04:18;;;;;;;4.63;2.92;;;22.90;99.90;;;32.04;38.19;98338.72;4991701;28;20204;-75
2021/08/11 08:06:45;;;;;;;5.07;2.58;;;23.00;99.90;;;32.11;38.52;98331.53;4991822;28;20212;-73
2021/08/11 08:09:12;;;;;;;6.28;2.70;;;23.00;99.90;;;31.27;40.82;98325.09;5001156;28;20209;-73
2021/08/11 08:11:39;;;;;;;7.30;2.83;;;23.00;99.90;;;31.57;40.06;98329.59;4992427;28;20227;-73
2021/08/11 08:14:06;;;;;;;6.00;2.75;;;23.00;99.90;;;30.64;42.23;98322.16;4992419;28;20640;-75
2021/08/11 08:16:33;;;;;;;4.80;2.55;;;23.00;99.90;;;31.40;40.60;98332.41;5008750;28;20203;-78
2021/08/11 08:19:00;;;;;;;4.25;2.90;;;23.10;99.90;;;31.61;40.14;98321.44;5014292;28;20672;-77
2021/08/11 08:21:28;;;;;;;4.55;2.50;;;23.00;99.90;;;31.29;40.96;98316.50;5006003;28;20235;-76
2021/08/11 08:23:55;;;;;;;4.43;2.60;;;23.30;99.90;;;30.41;41.93;98314.34;5010920;28;20211;-76
2021/08/11 08:26:22;;;;;;;5.13;2.83;;;23.30;26.10;;;30.84;41.20;98316.03;4993402;28;20581;-75
2021/08/11 08:28:50;;;;;;;7.32;3.00;;;23.30;2.20;;;30.62;41.85;98315.34;5001854;28;20211;-79
2021/08/11 08:31:17;;;;;;;3.80;2.50;;;23.40;1.00;;;30.68;42.59;98314.91;5009172;28;20227;-80
2021/08/11 08:33:44;;;;;;;4.88;3.00;;;23.30;1.00;;;29.76;44.68;98310.72;5005685;28;20288;-80
2021/08/11 08:36:11;;;;;;;8.77;3.20;;;23.20;1.00;;;31.06;41.99;98323.34;5002455;28;20215;-79
2021/08/11 08:38:40;;;;;;;7.75;3.35;;;23.40;1.00;;;31.90;39.59;98325.13;5013301;28;20218;-76
2021/08/11 08:41:09;;;;;;;6.50;3.17;;;23.60;1.00;;;31.62;40.11;98328.63;5005189;28;20199;-78
2021/08/11 08:43:36;;;;;;;6.63;2.90;;;23.50;1.00;;;32.45;38.36;98331.38;5009627;28;20310;-79
2021/08/11 08:46:04;;;;;;;9.15;2.90;;;23.60;1.00;;;32.44;38.38;98334.47;5003944;28;20213;-76
2021/08/11 08:48:32;;;;;;;5.78;2.70;;;23.90;1.00;;;33.37;36.83;98330.19;5011854;28;20203;-80
2021/08/11 08:50:59;;;;;;;5.53;2.67;;;24.10;1.00;;;33.13;36.29;98349.44;5004825;28;20703;-83
2021/08/11 08:53:26;;;;;;;5.63;2.78;;;24.40;1.00;;;33.28;36.63;98337.72;5013932;28;20209;-81
2021/08/11 08:55:55;;;;;;;5.60;2.78;;;24.40;1.00;;;33.23;37.07;98337.94;5006407;28;20204;-81
2021/08/11 08:58:22;;;;;;;4.50;2.55;;;24.60;1.00;;;31.48;40.83;98325.25;5005995;28;20384;-80
2021/08/11 09:00:49;;;;;;;5.07;2.88;;;24.30;1.00;;;30.62;43.14;98318.09;5009871;28;20290;-80
2021/08/11 09:03:17;;;;;;;7.22;3.00;;;24.00;1.00;;;30.32;43.52;98322.59;5016500;28;20747;-80
2021/08/11 09:05:45;;;;;;;4.18;3.13;;;23.80;1.00;;;30.42;44.63;98314.03;5011952;28;20258;-76
2021/08/11 09:08:12;;;;;;;6.53;3.55;;;23.70;1.00;;;32.06;40.39;98328.13;5012389;28;20214;-79
2021/08/11 09:10:41;;;;;;;5.00;2.70;;;23.80;1.00;;;33.70;37.41;98337.31;5011459;28;20262;-75
2021/08/11 09:13:19;;;;;;;6.32;3.05;;;24.30;1.00;;;32.84;37.13;98341.22;4990786;28;20275;-77
2021/08/11 09:15:48;;;;;;;6.85;3.05;;;24.40;1.00;;;32.54;37.30;98336.84;4999212;28;20291;-77
2021/08/11 09:18:18;;;;;;;4.75;3.08;;;24.60;1.00;;;31.31;40.95;98328.03;5006527;28;20212;-76
2021/08/11 09:20:47;;;;;;;5.07;2.75;;;24.70;1.00;;;33.66;36.72;98330.84;5010729;28;20207;-79
2021/08/11 09:23:16;;;;;;;5.60;2.65;;;24.80;1.00;;;33.49;35.63;98331.03;5001881;28;20351;-76
2021/08/11 09:26:01;;;;;;;5.07;2.88;;;25.20;1.00;;;34.31;34.28;98336.28;5010944;28;20205;-79
2021/08/11 09:28:31;;;;;;;6.30;3.20;;;25.30;1.00;;;34.48;33.73;98340.78;5001122;28;20205;-78
2021/08/11 09:30:58;;;;;;;3.90;2.88;;;25.50;1.00;;;34.81;32.97;98340.66;4991433;28;20227;-79
2021/08/11 09:33:26;;;;;;;2.78;2.33;;;25.60;1.00;;;33.20;36.95;98325.59;4993026;28;20410;-78
2021/08/11 09:35:54;;;;;;;6.18;3.53;;;25.30;1.00;;;35.08;33.06;98335.13;5011338;28;20199;-78
2021/08/11 09:38:22;;;;;;;6.53;3.90;;;25.60;1.00;;;35.16;32.96;98339.72;5010184;28;20213;-76
2021/08/11 09:40:50;;;;;;;3.22;2.50;;;26.00;1.00;;;35.41;32.00;98335.72;5001080;28;20207;-78
2021/08/11 09:43:20;;;;;;;3.25;2.28;;;26.10;1.00;;;34.29;33.59;98338.59;4998891;28;20200;-76
2021/08/11 09:45:50;;;;;;;5.03;2.60;;;26.20;1.00;;;32.61;37.38;98326.06;5004364;28;20214;-81
2021/08/11 09:48:20;;;;;;;4.22;2.60;;;25.70;1.00;;;33.14;35.90;98326.97;4996962;28;20211;-80
2021/08/11 09:50:51;;;;;;;4.40;2.60;;;25.80;1.00;;;35.28;32.89;98338.91;5007499;28;20318;-78
2021/08/11 09:53:33;;;;;;;4.20;2.70;;;26.20;1.00;;;35.83;31.62;98341.66;5008550;28;20206;-76
2021/08/11 09:56:04;;;;;;;2.85;2.50;;;26.60;1.00;;;35.30;32.12;98347.69;5002647;28;20618;-78
2021/08/11 09:58:38;;;;;;;5.13;2.80;;;26.70;1.00;;;36.57;30.14;98349.91;5005051;28;20200;-76
2021/08/11 10:01:08;;;;;;;5.00;2.58;;;26.80;1.00;;;36.65;30.10;98354.47;4998853;28;20211;-76
2021/08/11 10:03:54;;;;;;;6.43;2.72;;;27.10;1.00;;;35.70;30.49;98352.00;4999978;28;20562;-77
2021/08/11 10:06:28;;;;;;;5.22;2.50;;;26.90;1.00;;;36.19;29.60;98358.91;5008412;28;20206;-75
2021/08/11 10:08:55;;;;;;;3.58;2.22;;;26.80;1.00;;;34.77;31.26;98340.56;5005204;28;20572;-78
2021/08/11 10:11:36;;;;;;;3.35;2.60;;;26.40;1.00;;;35.43;30.48;98343.69;4997357;28;20246;-78
2021/08/11 10:14:06;;;;;;;3.47;2.70;;;26.20;1.00;;;34.97;30.41;98345.13;5013336;28;20215;-77
2021/08/11 10:16:36;;;;;;;4.25;2.88;;;26.10;1.00;;;35.15;30.92;98352.00;4999527;28;20266;-76
2021/08/11 10:19:04;;;;;;;3.63;2.63;;;26.30;1.00;;;34.39;30.88;98356.72;4995878;28;20284;-77
2021/08/11 10:21:34;;;;;;;3.70;2.67;;;26.00;1.00;;;34.98;30.42;98349.50;5000047;28;20762;-75
2021/08/11 10:24:02;;;;;;;3.75;2.78;;;26.30;1.00;;;34.18;31.52;98345.75;5002706;28;20216;-74
2021/08/11 10:26:30;;;;;;;5.90;3.00;;;26.50;1.00;;;33.79;33.03;98338.06;5011550;28;20203;-74
2021/08/11 10:28:58;;;;;;;6.38;3.22;;;26.30;1.00;;;35.73;30.08;98343.00;4996499;28;20212;-79
2021/08/11 10:31:25;;;;;;;3.45;2.47;;;26.70;74.50;;;33.51;33.21;98336.25;4991465;28;20656;-75
2021/08/11 10:33:54;;;;;;;4.30;2.90;;;26.90;99.90;;;34.10;33.03;98343.09;4989178;28;20691;-79
2021/08/11 10:36:21;;;;;;;5.70;2.80;;;26.50;99.90;;;34.55;32.22;98336.28;4993843;28;21015;-76
2021/08/11 10:38:49;;;;;;;4.05;2.55;;;26.70;99.90;;;34.15;32.92;98335.34;4994251;28;20208;-76
2021/08/11 10:41:16;;;;;;;5.35;3.00;;;26.60;99.90;;;35.21;31.23;98349.78;5000940;28;20227;-78
2021/08/11 10:43:44;;;;;;;5.90;2.95;;;26.40;99.90;;;34.67;32.00;98341.00;5001335;28;20287;-76
2021/08/11 10:46:15;;;;;;;4.50;2.85;;;26.30;99.90;;;34.53;31.63;98348.88;5004657;28;20204;-76
2021/08/11 10:48:42;;;;;;;4.75;2.55;;;26.50;99.90;;;34.83;31.44;98349.41;5007724;28;20207;-73
2021/08/11 10:51:12;;;;;;;4.97;2.95;;;26.40;99.90;;;34.00;32.67;98347.09;4995311;28;20224;-73
2021/08/11 10:53:39;;;;;;;4.05;2.88;;;25.90;41.00;;;34.38;32.25;98355.94;4994554;28;20318;-75
2021/08/11 10:56:06;;;;;;;4.68;3.20;;;25.60;1.00;;;33.77;33.06;98347.84;4993532;28;20574;-74
2021/08/11 10:58:41;;;;;;;5.95;3.45;;;25.40;1.00;;;34.78;32.05;98350.47;4995452;28;20207;-76
2021/08/11 11:01:35;;;;;;;5.05;3.00;;;25.60;1.00;;;34.75;31.52;98338.09;5001636;28;20210;-79
2021/08/11 11:04:03;;;;;;;4.43;3.10;;;26.10;99.90;;;33.80;33.10;98336.91;4972625;28;20211;-78
2021/08/11 11:07:15;;;;;;;4.88;3.08;;;26.10;1.00;;;34.05;33.65;98332.22;4998253;28;20211;-82
2021/08/11 11:09:44;;;;;;;5.90;2.90;;;25.90;1.00;;;34.53;31.87;98348.88;4994029;28;20239;-78
2021/08/11 11:12:39;;;;;;;3.55;2.50;;;25.90;1.00;;;35.41;29.59;98360.69;5001534;28;20236;-75